Eastchester, New York
Current Conditions -  °F | °C
As of 6:56 PM on Thursday 27 Nov 2014 (Local Time) from KHPN Reporting Station
Overcast Overcast  
Wind Chill: 29°   Ceiling: 2600
Heat Index: 34°   Visibility: 10mi
Dew Point: 29°   Wind: 6mph
Humidity: 82%   Direction: 320°NW
Pressure: 30"   Gusts: NA
Location:  40.96°N, 73.81°W
Report Text: KHPN 272356Z 32005KT 10SM BKN026 OVC040 01/M02 A3000 RMK AO2 SLP168 60000 T00111017 10017 20011 53012
Loading
Personal Weather Stations






























Interactive Weather Map New forecast layout! Learn more

10-Day Weather Forecast

Advertisements
Track Severe Weather on mobile